Time;durP1;ratioP1;P1;durP2;ratioP2;P2;SDS_P1;SDS_P2;PMS_P1;PMS_P2;Temp;Humidity;BMP_temperature;BMP_pressure;BME280_temperature;BME280_humidity;BME280_pressure;Samples;Min_cycle;Max_cycle;Signal;HPM_P1;HPM_P2
2021/01/17 00:00:35;;;;;;;48.30;23.02;;;-0.80;77.90;;;;;;4995376;28;20714;-64
2021/01/17 00:03:01;;;;;;;50.08;22.90;;;-0.80;77.90;;;;;;4996239;28;20042;-65
2021/01/17 00:05:29;;;;;;;47.08;22.30;;;-0.80;77.90;;;;;;4996723;28;20050;-65
2021/01/17 00:07:54;;;;;;;48.47;22.88;;;-0.80;77.80;;;;;;4997170;28;20050;-65
2021/01/17 00:10:26;;;;;;;49.90;24.23;;;-0.80;77.80;;;;;;5010469;28;20540;-65
2021/01/17 00:12:52;;;;;;;48.97;24.08;;;-0.80;77.90;;;;;;5013611;28;20044;-66
2021/01/17 00:15:18;;;;;;;47.75;22.67;;;-0.80;77.80;;;;;;5013763;28;20594;-66
2021/01/17 00:17:45;;;;;;;53.70;24.75;;;-0.80;78.00;;;;;;5014952;28;20065;-65
2021/01/17 00:20:16;;;;;;;48.63;23.35;;;-0.80;78.00;;;;;;5014316;28;20088;-65
2021/01/17 00:22:42;;;;;;;47.17;22.23;;;-0.80;78.10;;;;;;5015446;28;20412;-65
2021/01/17 00:25:11;;;;;;;49.83;23.33;;;-0.80;78.10;;;;;;5016527;28;20599;-65
2021/01/17 00:27:36;;;;;;;54.10;23.35;;;-0.80;78.10;;;;;;5025171;28;20084;-65
2021/01/17 00:30:08;;;;;;;52.83;24.48;;;-0.80;78.10;;;;;;5016405;28;20041;-65
2021/01/17 00:32:35;;;;;;;49.78;22.65;;;-0.80;78.30;;;;;;5019215;28;20595;-65
2021/01/17 00:35:01;;;;;;;51.33;22.40;;;-0.90;78.10;;;;;;5015656;28;20037;-65
2021/01/17 00:37:28;;;;;;;52.70;24.63;;;-0.80;78.30;;;;;;5016641;28;20038;-65
2021/01/17 00:39:53;;;;;;;52.22;23.75;;;-0.80;78.50;;;;;;5017020;28;20575;-65
2021/01/17 00:42:19;;;;;;;48.13;23.05;;;-0.80;78.50;;;;;;5018129;28;20053;-65
2021/01/17 00:44:45;;;;;;;50.78;22.88;;;-0.90;78.50;;;;;;5018834;28;20513;-65
2021/01/17 00:47:12;;;;;;;50.17;22.83;;;-0.90;78.60;;;;;;5019816;28;20084;-65
2021/01/17 00:49:37;;;;;;;44.17;20.92;;;-0.80;78.80;;;;;;5018141;28;20121;-65
2021/01/17 00:52:03;;;;;;;46.65;21.65;;;-0.90;78.60;;;;;;5016219;28;20180;-65
2021/01/17 00:54:29;;;;;;;49.92;23.13;;;-0.90;78.70;;;;;;5018235;28;20398;-66
2021/01/17 00:56:54;;;;;;;49.45;23.95;;;-0.80;78.90;;;;;;5019450;28;20041;-64
2021/01/17 00:59:20;;;;;;;49.22;23.50;;;-0.80;79.00;;;;;;5018252;28;20085;-65
2021/01/17 01:01:47;;;;;;;52.13;23.95;;;-0.80;79.00;;;;;;5019642;28;20049;-66
2021/01/17 01:04:16;;;;;;;52.65;23.73;;;-0.80;79.00;;;;;;5019027;28;20079;-65
2021/01/17 01:06:42;;;;;;;48.60;23.23;;;-0.80;79.20;;;;;;5025469;28;20025;-65
2021/01/17 01:09:15;;;;;;;51.88;23.75;;;-0.60;79.20;;;;;;5018989;28;20048;-65
2021/01/17 01:11:41;;;;;;;48.58;22.15;;;-0.70;79.20;;;;;;5016732;28;20316;-65
2021/01/17 01:14:07;;;;;;;47.38;22.25;;;-0.70;79.90;;;;;;5017402;28;20045;-65
2021/01/17 01:16:33;;;;;;;46.80;21.73;;;-0.70;79.00;;;;;;5016695;28;20441;-65
2021/01/17 01:18:59;;;;;;;48.78;22.70;;;-0.70;78.90;;;;;;5016676;28;20034;-63
2021/01/17 01:21:33;;;;;;;49.78;23.45;;;-0.70;79.90;;;;;;5015506;28;20072;-63
2021/01/17 01:23:59;;;;;;;51.05;22.70;;;-0.70;79.10;;;;;;5018038;28;20038;-65
2021/01/17 01:26:25;;;;;;;51.35;23.50;;;-0.70;79.10;;;;;;5015356;28;20037;-66
2021/01/17 01:28:54;;;;;;;44.30;22.08;;;-0.70;79.10;;;;;;5016391;28;20034;-65
2021/01/17 01:31:24;;;;;;;47.90;22.90;;;-0.70;79.20;;;;;;5020420;28;20408;-65
2021/01/17 01:33:51;;;;;;;45.42;21.13;;;-0.70;79.20;;;;;;5016462;28;20792;-65
2021/01/17 01:36:28;;;;;;;43.22;21.35;;;-0.60;80.00;;;;;;5016896;28;20033;-64
2021/01/17 01:38:55;;;;;;;44.65;20.83;;;-0.60;79.30;;;;;;5016925;28;20079;-64
2021/01/17 01:41:21;;;;;;;50.15;23.73;;;-0.60;79.20;;;;;;5016360;28;20076;-64
2021/01/17 01:43:47;;;;;;;52.72;23.52;;;-0.60;79.30;;;;;;5014501;28;20026;-64
2021/01/17 01:46:18;;;;;;;70.90;27.90;;;-0.60;79.20;;;;;;5018265;28;20036;-64
2021/01/17 01:48:45;;;;;;;44.83;22.05;;;-0.60;79.30;;;;;;5015820;28;20148;-65
2021/01/17 01:51:18;;;;;;;43.25;20.10;;;-0.50;79.30;;;;;;5016935;28;20080;-66
2021/01/17 01:53:44;;;;;;;41.83;20.73;;;-0.50;79.50;;;;;;5017870;28;20445;-65
2021/01/17 01:56:12;;;;;;;40.83;20.42;;;-0.50;79.40;;;;;;5019317;28;20044;-64
2021/01/17 01:58:38;;;;;;;38.25;19.13;;;-0.50;79.50;;;;;;5016709;28;20038;-64
2021/01/17 02:01:05;;;;;;;38.22;19.67;;;-0.50;79.50;;;;;;5016273;28;20109;-64
2021/01/17 02:03:30;;;;;;;37.75;20.45;;;-0.50;79.60;;;;;;5003849;28;20153;-64
2021/01/17 02:05:56;;;;;;;38.72;20.02;;;-0.50;79.70;;;;;;5017098;28;20041;-64
2021/01/17 02:08:40;;;;;;;36.35;19.55;;;-0.40;79.60;;;;;;5016909;28;20034;-64
2021/01/17 02:11:31;;;;;;;35.38;18.80;;;-0.40;79.70;;;;;;5010115;28;20670;-64
2021/01/17 02:14:08;;;;;;;34.90;18.02;;;-0.40;79.80;;;;;;4996689;28;20050;-64
2021/01/17 02:16:37;;;;;;;35.85;18.95;;;-0.40;79.80;;;;;;4993772;28;20065;-64
2021/01/17 02:19:07;;;;;;;36.67;18.95;;;-0.30;79.80;;;;;;5002480;28;20563;-64
2021/01/17 02:21:39;;;;;;;34.97;18.63;;;-0.30;79.80;;;;;;5017413;28;20045;-65
2021/01/17 02:24:11;;;;;;;38.45;20.02;;;-0.30;79.70;;;;;;5018330;28;20449;-64
2021/01/17 02:26:39;;;;;;;34.95;18.88;;;-0.20;79.80;;;;;;5019036;28;20052;-64
2021/01/17 02:29:10;;;;;;;37.85;19.90;;;-0.20;79.70;;;;;;5014647;28;20093;-65
2021/01/17 02:31:39;;;;;;;37.97;19.52;;;-0.20;79.70;;;;;;5017856;28;20034;-64
2021/01/17 02:34:06;;;;;;;36.13;19.50;;;-0.10;79.70;;;;;;5049130;28;20044;-64
2021/01/17 02:36:52;;;;;;;36.03;19.42;;;-0.10;79.50;;;;;;5048388;28;20037;-64
2021/01/17 02:39:48;;;;;;;39.33;18.90;;;-0.10;79.60;;;;;;5016399;28;20681;-65
2021/01/17 02:42:15;;;;;;;38.65;19.70;;;-0.10;79.50;;;;;;5017850;28;20038;-64
2021/01/17 02:44:42;;;;;;;32.95;19.17;;;-0.10;79.40;;;;;;5013677;28;20556;-64
2021/01/17 02:47:08;;;;;;;36.22;19.15;;;0.00;79.50;;;;;;5017003;28;20033;-65
2021/01/17 02:49:33;;;;;;;35.42;19.13;;;0.00;79.40;;;;;;5031331;28;20045;-64
2021/01/17 02:52:05;;;;;;;36.25;19.38;;;0.00;79.40;;;;;;5017609;28;20044;-65
2021/01/17 02:54:35;;;;;;;37.10;18.45;;;0.00;79.50;;;;;;5015616;28;20035;-64
2021/01/17 02:57:07;;;;;;;33.80;18.13;;;0.10;79.50;;;;;;5013888;28;20061;-64
2021/01/17 02:59:36;;;;;;;33.50;18.42;;;0.10;79.40;;;;;;5016005;28;20048;-65
2021/01/17 03:02:04;;;;;;;32.70;18.55;;;0.10;79.30;;;;;;5032578;28;20472;-65
2021/01/17 03:05:01;;;;;;;36.92;18.52;;;0.10;79.20;;;;;;5021393;28;20045;-64
2021/01/17 03:07:29;;;;;;;34.63;18.40;;;0.20;79.50;;;;;;5017379;28;20084;-64
2021/01/17 03:09:56;;;;;;;31.05;18.08;;;0.20;79.30;;;;;;5016335;28;20029;-63
2021/01/17 03:12:21;;;;;;;30.75;17.27;;;0.20;79.30;;;;;;5043914;28;20033;-64
2021/01/17 03:14:49;;;;;;;32.80;17.88;;;0.20;79.30;;;;;;5011421;28;20041;-64
2021/01/17 03:17:15;;;;;;;34.75;17.08;;;0.20;79.30;;;;;;4995468;28;20027;-65
2021/01/17 03:19:41;;;;;;;31.75;16.98;;;0.20;79.30;;;;;;5008402;28;20034;-64
2021/01/17 03:22:06;;;;;;;31.30;16.55;;;0.30;79.30;;;;;;5003926;28;20115;-64
2021/01/17 03:24:32;;;;;;;33.08;18.80;;;0.30;79.40;;;;;;4997851;28;20060;-64
2021/01/17 03:26:58;;;;;;;31.02;17.60;;;0.30;79.40;;;;;;4998573;28;20037;-64
2021/01/17 03:29:23;;;;;;;31.63;16.35;;;0.30;79.40;;;;;;4997951;28;20494;-64
2021/01/17 03:31:49;;;;;;;32.58;18.15;;;0.30;79.40;;;;;;4995784;28;21821;-64
2021/01/17 03:34:15;;;;;;;38.22;21.08;;;0.40;79.30;;;;;;4996488;28;20085;-65
2021/01/17 03:36:40;;;;;;;38.72;19.58;;;0.40;79.30;;;;;;4997031;28;20409;-64
2021/01/17 03:39:06;;;;;;;35.45;18.77;;;0.40;79.00;;;;;;4998472;28;20029;-64
2021/01/17 03:41:32;;;;;;;35.22;19.83;;;0.30;79.00;;;;;;5005811;28;20200;-63
2021/01/17 03:43:58;;;;;;;36.15;19.10;;;0.30;78.90;;;;;;5015187;28;20151;-64
2021/01/17 03:46:24;;;;;;;40.83;21.70;;;0.30;79.00;;;;;;5014769;28;20037;-63
2021/01/17 03:48:50;;;;;;;37.45;19.35;;;0.30;79.00;;;;;;5016158;28;20030;-65
2021/01/17 03:51:16;;;;;;;39.35;20.05;;;0.20;79.00;;;;;;5013565;28;20032;-64
2021/01/17 03:53:42;;;;;;;36.03;19.45;;;0.20;79.20;;;;;;5014513;28;20041;-64
2021/01/17 03:56:07;;;;;;;37.55;19.48;;;0.20;79.20;;;;;;5017163;28;20030;-64
2021/01/17 03:58:33;;;;;;;35.22;19.27;;;0.10;79.30;;;;;;5046001;28;20033;-64
2021/01/17 04:00:58;;;;;;;38.85;20.35;;;0.10;79.20;;;;;;5017019;28;20452;-63
2021/01/17 04:03:24;;;;;;;38.00;20.52;;;0.10;79.30;;;;;;5019045;28;20038;-64
2021/01/17 04:05:50;;;;;;;39.03;20.25;;;0.10;79.30;;;;;;5019987;28;20041;-64
2021/01/17 04:08:16;;;;;;;38.25;20.30;;;0.10;79.40;;;;;;5020764;28;20041;-64
2021/01/17 04:10:41;;;;;;;36.25;19.65;;;0.20;79.50;;;;;;5015553;28;20110;-63
2021/01/17 04:13:07;;;;;;;39.05;19.55;;;0.10;79.50;;;;;;5018674;28;20549;-63
2021/01/17 04:15:33;;;;;;;38.45;19.88;;;0.20;79.50;;;;;;5017422;28;20827;-63
2021/01/17 04:17:58;;;;;;;38.17;20.08;;;0.20;80.30;;;;;;5034965;28;20111;-64
2021/01/17 04:20:24;;;;;;;39.58;21.10;;;0.20;79.40;;;;;;5015836;28;20128;-64
2021/01/17 04:22:49;;;;;;;40.30;20.35;;;0.20;79.40;;;;;;5018639;28;20176;-64
2021/01/17 04:25:15;;;;;;;39.78;20.38;;;0.30;79.40;;;;;;5020768;28;20436;-64
2021/01/17 04:27:41;;;;;;;39.33;21.27;;;0.30;79.30;;;;;;5018561;28;20046;-64
2021/01/17 04:30:07;;;;;;;39.78;20.58;;;0.30;79.30;;;;;;5018122;28;20120;-65
2021/01/17 04:32:34;;;;;;;38.22;20.25;;;0.30;79.30;;;;;;5018881;28;20049;-64
2021/01/17 04:35:01;;;;;;;38.45;19.83;;;0.30;79.20;;;;;;5021124;28;20034;-65
2021/01/17 04:37:27;;;;;;;38.20;19.08;;;0.30;79.20;;;;;;5019493;28;20044;-64
2021/01/17 04:39:52;;;;;;;40.47;20.20;;;0.30;79.20;;;;;;5021551;28;20038;-64
2021/01/17 04:42:20;;;;;;;40.22;20.92;;;0.40;80.10;;;;;;5017859;28;20128;-63
2021/01/17 04:44:54;;;;;;;39.15;19.73;;;0.40;79.20;;;;;;5016085;28;20049;-64
2021/01/17 04:47:20;;;;;;;39.80;20.80;;;0.40;79.20;;;;;;5020563;28;20149;-64
2021/01/17 04:49:52;;;;;;;41.38;19.92;;;0.40;79.20;;;;;;5017366;28;20517;-64
2021/01/17 04:52:21;;;;;;;38.00;19.88;;;0.40;79.10;;;;;;5020277;28;20064;-65
2021/01/17 04:54:47;;;;;;;38.90;20.55;;;0.40;79.00;;;;;;5018720;28;20045;-65
2021/01/17 04:57:23;;;;;;;37.58;19.20;;;0.40;79.00;;;;;;5017199;28;20037;-64
2021/01/17 05:00:05;;;;;;;36.67;18.98;;;0.40;79.00;;;;;;5017857;28;20052;-64
2021/01/17 05:02:33;;;;;;;42.20;20.10;;;0.50;79.10;;;;;;5018617;28;20038;-64
2021/01/17 05:05:21;;;;;;;41.15;21.00;;;0.40;79.00;;;;;;5018971;28;20516;-64
2021/01/17 05:07:59;;;;;;;41.15;21.50;;;0.50;79.20;;;;;;5019637;28;20048;-64
2021/01/17 05:10:37;;;;;;;42.80;21.75;;;0.50;79.20;;;;;;5017389;28;20516;-64
2021/01/17 05:13:17;;;;;;;44.50;22.48;;;0.50;79.20;;;;;;5017696;28;20045;-61
2021/01/17 05:15:44;;;;;;;47.17;23.30;;;0.50;79.20;;;;;;5018624;28;20029;-64
2021/01/17 05:18:10;;;;;;;43.75;21.58;;;0.60;79.20;;;;;;5018378;28;20465;-64
2021/01/17 05:20:37;;;;;;;42.95;21.92;;;0.60;79.20;;;;;;5019237;28;20065;-64
2021/01/17 05:23:09;;;;;;;43.38;21.25;;;0.60;79.20;;;;;;5019794;28;20073;-64
2021/01/17 05:25:35;;;;;;;39.15;19.63;;;0.60;79.30;;;;;;5018723;28;20045;-64
2021/01/17 05:28:01;;;;;;;45.15;23.75;;;0.60;79.20;;;;;;5018946;28;20041;-64
2021/01/17 05:30:27;;;;;;;43.58;21.85;;;0.60;79.30;;;;;;5013646;28;20065;-64
2021/01/17 05:32:54;;;;;;;39.33;19.92;;;0.60;79.30;;;;;;5019765;28;20121;-64
2021/01/17 05:35:22;;;;;;;39.53;21.10;;;0.70;79.40;;;;;;5019445;28;20390;-64
2021/01/17 05:37:52;;;;;;;36.30;19.30;;;0.70;80.20;;;;;;5017687;28;20132;-64
2021/01/17 05:40:21;;;;;;;39.15;19.90;;;0.70;79.30;;;;;;5019519;28;20041;-65
2021/01/17 05:42:48;;;;;;;37.90;20.08;;;0.70;79.30;;;;;;5018102;28;20033;-64
2021/01/17 05:45:22;;;;;;;39.67;20.90;;;0.70;79.30;;;;;;5015950;28;20049;-65
2021/01/17 05:47:55;;;;;;;40.38;20.33;;;0.70;79.30;;;;;;5019065;28;20030;-64
2021/01/17 05:50:21;;;;;;;36.90;19.65;;;0.80;79.40;;;;;;5017570;28;20096;-64
2021/01/17 05:52:57;;;;;;;33.88;18.33;;;0.80;79.30;;;;;;5016683;28;20493;-64
2021/01/17 05:55:39;;;;;;;35.08;17.90;;;0.80;79.40;;;;;;5019042;28;20501;-64
2021/01/17 05:58:33;;;;;;;35.65;17.50;;;0.80;79.50;;;;;;5017641;28;20562;-64
2021/01/17 06:01:00;;;;;;;35.28;18.50;;;0.80;79.50;;;;;;5016956;28;20513;-64
2021/01/17 06:03:30;;;;;;;37.33;19.80;;;0.80;79.30;;;;;;5017551;28;20580;-64
2021/01/17 06:06:25;;;;;;;34.97;18.67;;;0.80;79.30;;;;;;5017360;28;20052;-64
2021/01/17 06:08:52;;;;;;;;;;;0.80;79.60;;;;;;5017693;28;20082;-65
2021/01/17 06:11:20;;;;;;;34.53;17.95;;;0.80;79.70;;;;;;5016110;28;19912;-62
2021/01/17 06:13:56;;;;;;;34.60;17.17;;;0.80;79.20;;;;;;5016474;28;20033;-64
2021/01/17 06:16:37;;;;;;;34.17;18.42;;;0.80;79.30;;;;;;5016848;28;20071;-64
2021/01/17 06:19:06;;;;;;;30.38;16.90;;;0.80;79.50;;;;;;5049716;28;20038;-64
2021/01/17 06:21:32;;;;;;;33.72;17.00;;;0.80;79.40;;;;;;5017935;28;20042;-64
2021/01/17 06:24:06;;;;;;;32.67;17.23;;;0.80;79.50;;;;;;5016278;28;20037;-64
2021/01/17 06:26:35;;;;;;;33.50;17.00;;;0.90;79.60;;;;;;5017164;28;20116;-64
2021/01/17 06:29:02;;;;;;;32.17;16.98;;;0.90;79.60;;;;;;5013975;28;20053;-64
2021/01/17 06:31:30;;;;;;;28.40;15.60;;;0.90;79.50;;;;;;5018445;28;20034;-64
2021/01/17 06:34:09;;;;;;;30.75;16.20;;;0.90;79.50;;;;;;5015703;28;20038;-64
2021/01/17 06:36:37;;;;;;;31.40;16.45;;;1.00;79.60;;;;;;5030187;28;20050;-63
2021/01/17 06:39:04;;;;;;;30.60;16.17;;;1.00;79.50;;;;;;5017744;28;20045;-63
2021/01/17 06:41:40;;;;;;;28.95;15.35;;;1.00;79.50;;;;;;5016328;28;20790;-64
2021/01/17 06:44:07;;;;;;;27.88;15.60;;;1.00;79.50;;;;;;5018454;28;20037;-63
2021/01/17 06:46:43;;;;;;;28.70;15.55;;;1.00;79.30;;;;;;5015088;28;20030;-63
2021/01/17 06:49:29;;;;;;;27.63;14.90;;;1.00;79.50;;;;;;5015442;28;20037;-63
2021/01/17 06:51:56;;;;;;;30.00;15.82;;;1.00;79.50;;;;;;5016619;28;20033;-63
2021/01/17 06:54:31;;;;;;;29.38;15.88;;;1.00;79.30;;;;;;5014735;28;20056;-63
2021/01/17 06:56:58;;;;;;;;;;;1.00;79.30;;;;;;5015804;28;20042;-62
2021/01/17 06:59:34;;;;;;;29.55;15.02;;;1.10;79.50;;;;;;5016054;28;20384;-62
2021/01/17 07:02:24;;;;;;;27.63;15.15;;;1.10;79.20;;;;;;5008143;28;20049;-63
2021/01/17 07:04:53;;;;;;;30.65;16.25;;;1.10;79.20;;;;;;5015066;28;20598;-62
2021/01/17 07:07:58;;;;;;;31.73;16.48;;;1.10;79.00;;;;;;5012023;28;20037;-63
2021/01/17 07:10:24;;;;;;;35.95;18.63;;;1.10;79.10;;;;;;5013922;28;20041;-63
2021/01/17 07:13:03;;;;;;;36.33;19.50;;;1.10;78.90;;;;;;5017704;28;20148;-64
2021/01/17 07:15:30;;;;;;;36.83;19.95;;;1.10;79.00;;;;;;5011999;28;20500;-63
2021/01/17 07:18:15;;;;;;;41.47;21.20;;;1.10;78.90;;;;;;5014393;28;20026;-64
2021/01/17 07:20:46;;;;;;;36.28;19.23;;;1.10;79.20;;;;;;5015068;28;20513;-64
2021/01/17 07:23:13;;;;;;;38.30;19.23;;;1.10;79.00;;;;;;5016777;28;20548;-64
2021/01/17 07:25:43;;;;;;;32.25;18.48;;;1.00;79.00;;;;;;5014471;28;20084;-64
2021/01/17 07:28:13;;;;;;;34.50;19.13;;;1.00;79.00;;;;;;5012587;28;20520;-64
2021/01/17 07:30:59;;;;;;;32.92;18.00;;;1.10;79.20;;;;;;5011979;28;21078;-64
2021/01/17 07:33:26;;;;;;;44.88;25.70;;;1.10;79.40;;;;;;4995196;28;20125;-63
2021/01/17 07:36:03;;;;;;;39.10;22.13;;;1.10;79.30;;;;;;5009733;28;20032;-64
2021/01/17 07:38:31;;;;;;;29.20;16.90;;;1.10;79.30;;;;;;5017131;28;20045;-63
2021/01/17 07:41:01;;;;;;;26.40;15.52;;;1.10;79.30;;;;;;5017135;28;21014;-63
2021/01/17 07:43:41;;;;;;;25.23;14.52;;;1.10;79.30;;;;;;5016806;28;20037;-62
2021/01/17 07:46:12;;;;;;;22.52;13.80;;;1.00;79.30;;;;;;5016978;28;20488;-61
2021/01/17 07:48:39;;;;;;;24.20;13.73;;;1.10;79.30;;;;;;5026416;28;20033;-64
2021/01/17 07:51:08;;;;;;;26.65;15.55;;;1.10;79.30;;;;;;5008473;28;20042;-63
2021/01/17 07:53:36;;;;;;;33.90;20.20;;;1.10;79.30;;;;;;5008929;28;20037;-64
2021/01/17 07:56:28;;;;;;;48.30;26.40;;;1.10;79.60;;;;;;5007634;28;20592;-64
2021/01/17 07:58:58;;;;;;;37.33;22.55;;;1.10;80.60;;;;;;5006576;28;20045;-62
2021/01/17 08:01:37;;;;;;;35.65;20.77;;;1.10;79.60;;;;;;5007200;28;20540;-63
2021/01/17 08:04:06;;;;;;;25.70;14.88;;;1.10;79.70;;;;;;5021809;28;20518;-61
2021/01/17 08:06:34;;;;;;;22.73;12.93;;;1.10;79.50;;;;;;5010203;28;20457;-60
2021/01/17 08:09:13;;;;;;;23.58;12.63;;;1.10;79.50;;;;;;5002908;28;20091;-62
2021/01/17 08:12:00;;;;;;;20.55;12.15;;;1.20;79.60;;;;;;4987121;28;20129;-63
2021/01/17 08:14:29;;;;;;;23.27;12.88;;;1.20;79.70;;;;;;4990477;28;20052;-65
2021/01/17 08:17:05;;;;;;;27.23;14.98;;;1.20;80.40;;;;;;5006417;28;20049;-63
2021/01/17 08:19:42;;;;;;;24.80;14.95;;;1.20;79.70;;;;;;4987273;28;20034;-65
2021/01/17 08:22:31;;;;;;;25.83;14.90;;;1.30;79.70;;;;;;5002185;28;20042;-64
2021/01/17 08:24:58;;;;;;;30.90;16.35;;;1.30;79.90;;;;;;5007070;28;20129;-64
2021/01/17 08:27:34;;;;;;;28.92;15.90;;;1.30;80.60;;;;;;5009749;28;20131;-64
2021/01/17 08:30:03;;;;;;;31.88;17.38;;;1.40;79.90;;;;;;5011351;28;20111;-63
2021/01/17 08:32:40;;;;;;;25.80;15.48;;;1.40;79.90;;;;;;5008417;28;20518;-64
2021/01/17 08:35:22;;;;;;;31.50;17.55;;;1.50;79.90;;;;;;5006916;28;20488;-66
2021/01/17 08:38:08;;;;;;;26.50;14.57;;;1.50;79.90;;;;;;5007936;28;20044;-65
2021/01/17 08:40:34;;;;;;;31.52;16.98;;;1.60;79.70;;;;;;4986227;28;20916;-65
2021/01/17 08:43:05;;;;;;;28.00;16.30;;;1.60;79.50;;;;;;4996018;28;20048;-62
2021/01/17 08:45:40;;;;;;;32.55;18.15;;;1.60;79.40;;;;;;4997528;28;20034;-64
2021/01/17 08:48:17;;;;;;;39.13;20.38;;;1.70;79.40;;;;;;4989373;28;20034;-64
2021/01/17 08:50:45;;;;;;;35.20;19.20;;;1.70;79.30;;;;;;4987175;28;20038;-63
2021/01/17 08:53:13;;;;;;;37.22;20.38;;;1.70;79.30;;;;;;4996915;28;20041;-65
2021/01/17 08:55:42;;;;;;;36.92;20.95;;;1.80;79.40;;;;;;5010426;28;20177;-62
2021/01/17 08:58:09;;;;;;;31.85;18.73;;;1.80;79.50;;;;;;4991376;28;20057;-63
2021/01/17 09:00:56;;;;;;;29.42;16.85;;;1.80;79.30;;;;;;5029155;28;20066;-65
2021/01/17 09:03:24;;;;;;;27.60;16.63;;;1.90;79.30;;;;;;5001103;28;20069;-63
2021/01/17 09:05:55;;;;;;;30.25;16.30;;;1.90;79.20;;;;;;5007717;28;20269;-63
2021/01/17 09:08:21;;;;;;;31.25;17.08;;;1.90;79.20;;;;;;5000173;28;20045;-64
2021/01/17 09:10:47;;;;;;;31.92;17.38;;;2.00;79.10;;;;;;4997903;28;20041;-64
2021/01/17 09:13:21;;;;;;;33.08;18.17;;;2.00;79.00;;;;;;5007100;28;20033;-63
2021/01/17 09:16:06;;;;;;;33.17;17.73;;;2.00;79.20;;;;;;5020334;28;20030;-62
2021/01/17 09:18:35;;;;;;;;;;;2.10;79.20;;;;;;5018543;28;20033;-63
2021/01/17 09:21:02;;;;;;;29.55;16.23;;;2.10;79.20;;;;;;5018485;28;19913;-64
2021/01/17 09:23:28;;;;;;;31.20;17.52;;;2.10;78.90;;;;;;5020093;28;20045;-64
2021/01/17 09:25:58;;;;;;;31.88;17.23;;;2.10;78.80;;;;;;5021679;28;20049;-63
2021/01/17 09:28:25;;;;;;;32.80;17.65;;;2.10;78.80;;;;;;5017633;28;20049;-63
2021/01/17 09:30:53;;;;;;;37.72;19.23;;;2.20;79.00;;;;;;5015031;28;20045;-63
2021/01/17 09:33:19;;;;;;;35.45;19.60;;;2.20;79.00;;;;;;5018700;28;20643;-63
2021/01/17 09:35:46;;;;;;;34.38;18.08;;;2.20;78.80;;;;;;5020409;28;20037;-61
2021/01/17 09:38:17;;;;;;;38.47;20.27;;;2.20;78.70;;;;;;5033689;28;20493;-63
2021/01/17 09:40:54;;;;;;;33.97;18.75;;;2.20;78.60;;;;;;5019318;28;20444;-62
2021/01/17 09:43:20;;;;;;;32.40;17.33;;;2.30;78.60;;;;;;5020104;28;20036;-64
2021/01/17 09:45:53;;;;;;;31.92;18.27;;;2.30;78.50;;;;;;5018807;28;20060;-64
2021/01/17 09:48:23;;;;;;;33.05;18.08;;;2.20;78.40;;;;;;5018522;28;20045;-64
2021/01/17 09:50:52;;;;;;;37.20;18.58;;;2.20;78.50;;;;;;5018586;28;20034;-64
2021/01/17 09:53:19;;;;;;;33.58;17.95;;;2.30;78.70;;;;;;5018193;28;20030;-63
2021/01/17 09:55:47;;;;;;;32.50;17.40;;;2.30;78.70;;;;;;5017380;28;20041;-63
2021/01/17 09:58:14;;;;;;;33.45;17.52;;;2.30;78.80;;;;;;5012027;28;20452;-64
2021/01/17 10:00:41;;;;;;;31.40;17.45;;;2.30;78.80;;;;;;5014087;28;20949;-63
2021/01/17 10:03:13;;;;;;;29.13;16.50;;;2.30;78.90;;;;;;5011331;28;20089;-63
2021/01/17 10:05:40;;;;;;;29.42;15.77;;;2.30;79.20;;;;;;5016606;28;20038;-64
2021/01/17 10:08:10;;;;;;;31.02;18.20;;;2.40;79.20;;;;;;5018742;28;20069;-64
2021/01/17 10:10:40;;;;;;;29.73;16.70;;;2.40;79.20;;;;;;5016861;28;20067;-64
2021/01/17 10:13:07;;;;;;;29.75;16.50;;;2.50;79.20;;;;;;5019526;28;20080;-64
2021/01/17 10:15:36;;;;;;;31.27;17.02;;;2.50;79.10;;;;;;5015180;28;20088;-65
2021/01/17 10:18:03;;;;;;;28.42;16.48;;;2.50;79.00;;;;;;5018354;28;20068;-64
2021/01/17 10:20:40;;;;;;;30.65;18.40;;;2.60;79.00;;;;;;5013595;28;20569;-65
2021/01/17 10:23:16;;;;;;;30.00;16.05;;;2.70;79.00;;;;;;5017843;28;20543;-65
2021/01/17 10:25:45;;;;;;;28.45;15.77;;;2.70;78.80;;;;;;5017958;28;20038;-64
2021/01/17 10:28:11;;;;;;;30.38;16.92;;;2.80;78.80;;;;;;5024631;28;20033;-65
2021/01/17 10:30:40;;;;;;;26.10;14.40;;;2.80;78.90;;;;;;5017624;28;20107;-66
2021/01/17 10:33:14;;;;;;;24.85;13.77;;;2.90;78.90;;;;;;5018700;28;20038;-64
2021/01/17 10:35:43;;;;;;;23.33;13.27;;;2.90;78.80;;;;;;5050497;28;20553;-64
2021/01/17 10:38:10;;;;;;;22.20;12.90;;;2.90;78.70;;;;;;5017658;28;20034;-64
2021/01/17 10:40:37;;;;;;;22.05;13.65;;;3.00;78.70;;;;;;5032626;28;20124;-64
2021/01/17 10:43:08;;;;;;;23.88;13.40;;;3.00;78.60;;;;;;5014792;28;20440;-63
2021/01/17 10:45:36;;;;;;;23.05;12.23;;;3.00;78.50;;;;;;5017073;28;20081;-65
2021/01/17 10:48:11;;;;;;;20.45;12.05;;;3.10;78.50;;;;;;5047523;28;20084;-64
2021/01/17 10:50:48;;;;;;;20.52;11.82;;;3.10;78.40;;;;;;5014184;28;20223;-65
2021/01/17 10:53:25;;;;;;;22.48;11.50;;;3.10;78.30;;;;;;5013908;28;20034;-64
2021/01/17 10:55:56;;;;;;;19.92;10.80;;;3.10;78.30;;;;;;5015915;28;20119;-64
2021/01/17 10:58:32;;;;;;;17.33;10.50;;;3.20;78.40;;;;;;5016698;28;20042;-64
2021/01/17 11:01:00;;;;;;;17.60;9.95;;;3.20;78.40;;;;;;5017739;28;20113;-64
2021/01/17 11:03:31;;;;;;;17.00;9.68;;;3.20;78.40;;;;;;5019210;28;20033;-64
2021/01/17 11:06:10;;;;;;;15.52;8.63;;;3.30;78.40;;;;;;5018317;28;20144;-64
2021/01/17 11:08:45;;;;;;;15.07;8.82;;;3.30;78.30;;;;;;5015978;28;20030;-63
2021/01/17 11:11:11;;;;;;;;;;;3.30;78.30;;;;;;5017782;28;20036;-63
2021/01/17 11:13:36;;;;;;;15.68;8.93;;;3.40;78.30;;;;;;5049576;28;20352;-63
2021/01/17 11:16:03;;;;;;;15.25;9.27;;;3.40;78.20;;;;;;5015161;28;20041;-64
2021/01/17 11:18:29;;;;;;;15.80;9.30;;;3.40;78.10;;;;;;5016108;28;20041;-64
2021/01/17 11:20:59;;;;;;;17.02;9.63;;;3.40;78.10;;;;;;5019376;28;20508;-64
2021/01/17 11:23:26;;;;;;;15.05;9.23;;;3.40;78.10;;;;;;5048855;28;20095;-64
2021/01/17 11:26:08;;;;;;;15.82;8.75;;;3.50;78.20;;;;;;5016796;28;20396;-64
2021/01/17 11:28:33;;;;;;;14.18;8.52;;;3.50;78.10;;;;;;5015209;28;20037;-64
2021/01/17 11:31:13;;;;;;;14.30;8.88;;;3.50;78.00;;;;;;5015226;28;20108;-64
2021/01/17 11:33:39;;;;;;;16.40;9.60;;;3.50;77.80;;;;;;5017217;28;20042;-64
2021/01/17 11:36:05;;;;;;;16.77;9.68;;;3.50;77.90;;;;;;5015096;28;20060;-63
2021/01/17 11:38:59;;;;;;;13.40;7.82;;;3.50;77.90;;;;;;5016489;28;20119;-64
2021/01/17 11:41:33;;;;;;;12.88;7.97;;;3.60;77.80;;;;;;5017301;28;20132;-64
2021/01/17 11:44:13;;;;;;;12.60;7.60;;;3.60;77.80;;;;;;5017893;28;20100;-64
2021/01/17 11:46:40;;;;;;;11.75;7.28;;;3.60;77.80;;;;;;5017897;28;20503;-64
2021/01/17 11:49:06;;;;;;;13.40;7.82;;;3.60;77.70;;;;;;5016793;28;20112;-63
2021/01/17 11:51:32;;;;;;;12.30;7.32;;;3.60;77.80;;;;;;5016298;28;20032;-64
2021/01/17 11:54:14;;;;;;;11.18;7.03;;;3.60;78.60;;;;;;5017414;28;20038;-63
2021/01/17 11:56:40;;;;;;;12.00;7.32;;;3.60;77.60;;;;;;5017438;28;20063;-63
2021/01/17 11:59:06;;;;;;;10.73;6.93;;;3.60;77.80;;;;;;5013588;28;20112;-64
2021/01/17 12:01:32;;;;;;;11.43;7.30;;;3.70;77.90;;;;;;5017112;28;20646;-64
2021/01/17 12:04:02;;;;;;;12.23;7.57;;;3.70;78.00;;;;;;5017687;28;20038;-63
2021/01/17 12:06:29;;;;;;;11.32;7.13;;;3.80;78.00;;;;;;5016731;28;20140;-64
2021/01/17 12:09:08;;;;;;;10.02;6.75;;;3.70;77.70;;;;;;5015923;28;20112;-63
2021/01/17 12:11:46;;;;;;;12.20;7.40;;;3.70;77.60;;;;;;5048334;28;20045;-64
2021/01/17 12:14:22;;;;;;;12.68;7.75;;;3.70;77.50;;;;;;5016886;28;20029;-63
2021/01/17 12:16:58;;;;;;;11.77;7.60;;;3.70;77.60;;;;;;5017420;28;20048;-64
2021/01/17 12:19:26;;;;;;;11.20;7.10;;;3.70;77.60;;;;;;5015381;28;20048;-64
2021/01/17 12:21:58;;;;;;;10.98;7.20;;;3.70;77.60;;;;;;5014049;28;20033;-64
2021/01/17 12:24:24;;;;;;;10.55;6.95;;;3.70;77.50;;;;;;5017903;28;20065;-63
2021/01/17 12:26:51;;;;;;;12.52;7.75;;;3.80;77.60;;;;;;5015785;28;20041;-65
2021/01/17 12:29:17;;;;;;;10.65;6.75;;;3.80;77.60;;;;;;5018624;28;20030;-64
2021/01/17 12:31:44;;;;;;;10.90;6.97;;;3.80;77.80;;;;;;5018977;28;20501;-64
2021/01/17 12:34:10;;;;;;;11.27;6.97;;;3.80;77.80;;;;;;5021120;28;20401;-64
2021/01/17 12:36:37;;;;;;;10.50;7.05;;;3.70;77.80;;;;;;5019099;28;20049;-64
2021/01/17 12:39:05;;;;;;;12.98;7.22;;;3.80;78.00;;;;;;5019753;28;20492;-63
2021/01/17 12:41:33;;;;;;;11.40;7.63;;;3.80;78.10;;;;;;5019980;28;20029;-63
2021/01/17 12:44:00;;;;;;;10.10;6.93;;;3.80;78.10;;;;;;5021756;28;20087;-62
2021/01/17 12:46:27;;;;;;;12.80;8.35;;;3.80;78.20;;;;;;5019839;28;20037;-64
2021/01/17 12:48:54;;;;;;;11.48;7.32;;;3.80;78.10;;;;;;5016979;28;20030;-66
2021/01/17 12:51:20;;;;;;;13.57;8.32;;;3.80;78.10;;;;;;5015997;28;20129;-65
2021/01/17 12:53:47;;;;;;;10.98;7.20;;;3.90;78.10;;;;;;5017123;28;20038;-63